sensor_id;sensor_type;location;lat;lon;timestamp;P1;durP1;ratioP1;P2;durP2;ratioP2
12122;SDS011;6125;59.628;17.852;2022-11-11T00:01:10;8.30;;;1.50;;
12122;SDS011;6125;59.628;17.852;2022-11-11T00:03:38;5.83;;;2.10;;
12122;SDS011;6125;59.628;17.852;2022-11-11T00:06:06;5.80;;;1.93;;
12122;SDS011;6125;59.628;17.852;2022-11-11T00:08:35;3.93;;;1.70;;
12122;SDS011;6125;59.628;17.852;2022-11-11T00:11:03;3.20;;;1.40;;
12122;SDS011;6125;59.628;17.852;2022-11-11T00:13:31;4.93;;;1.40;;
12122;SDS011;6125;59.628;17.852;2022-11-11T00:16:06;4.13;;;1.30;;
12122;SDS011;6125;59.628;17.852;2022-11-11T00:18:35;3.50;;;1.53;;
12122;SDS011;6125;59.628;17.852;2022-11-11T00:21:21;3.93;;;1.60;;
12122;SDS011;6125;59.628;17.852;2022-11-11T00:24:07;5.47;;;1.63;;
12122;SDS011;6125;59.628;17.852;2022-11-11T00:27:03;3.03;;;1.50;;
12122;SDS011;6125;59.628;17.852;2022-11-11T00:29:30;5.00;;;1.57;;
12122;SDS011;6125;59.628;17.852;2022-11-11T00:31:59;5.73;;;1.40;;
12122;SDS011;6125;59.628;17.852;2022-11-11T00:34:43;4.43;;;1.40;;
12122;SDS011;6125;59.628;17.852;2022-11-11T00:37:30;4.77;;;1.50;;
12122;SDS011;6125;59.628;17.852;2022-11-11T00:40:00;2.33;;;1.27;;
12122;SDS011;6125;59.628;17.852;2022-11-11T00:42:27;5.80;;;1.97;;
12122;SDS011;6125;59.628;17.852;2022-11-11T00:44:54;6.93;;;1.30;;
12122;SDS011;6125;59.628;17.852;2022-11-11T00:47:24;4.77;;;1.57;;
12122;SDS011;6125;59.628;17.852;2022-11-11T00:50:10;3.63;;;1.60;;
12122;SDS011;6125;59.628;17.852;2022-11-11T00:52:55;3.93;;;1.63;;
12122;SDS011;6125;59.628;17.852;2022-11-11T00:55:25;2.53;;;1.10;;
12122;SDS011;6125;59.628;17.852;2022-11-11T00:57:51;9.17;;;1.97;;
12122;SDS011;6125;59.628;17.852;2022-11-11T01:00:19;3.07;;;1.27;;
12122;SDS011;6125;59.628;17.852;2022-11-11T01:02:47;3.40;;;1.60;;
12122;SDS011;6125;59.628;17.852;2022-11-11T01:05:16;3.20;;;1.53;;
12122;SDS011;6125;59.628;17.852;2022-11-11T01:07:46;4.10;;;1.40;;
12122;SDS011;6125;59.628;17.852;2022-11-11T01:10:16;5.80;;;1.40;;
12122;SDS011;6125;59.628;17.852;2022-11-11T01:12:59;5.43;;;1.50;;
12122;SDS011;6125;59.628;17.852;2022-11-11T01:15:37;4.10;;;1.50;;
12122;SDS011;6125;59.628;17.852;2022-11-11T01:18:06;2.33;;;1.30;;
12122;SDS011;6125;59.628;17.852;2022-11-11T01:20:37;4.97;;;1.47;;
12122;SDS011;6125;59.628;17.852;2022-11-11T01:23:06;2.93;;;1.03;;
12122;SDS011;6125;59.628;17.852;2022-11-11T01:25:34;3.03;;;1.20;;
12122;SDS011;6125;59.628;17.852;2022-11-11T01:28:02;2.43;;;1.20;;
12122;SDS011;6125;59.628;17.852;2022-11-11T01:30:30;3.87;;;1.43;;
12122;SDS011;6125;59.628;17.852;2022-11-11T01:33:00;3.77;;;1.37;;
12122;SDS011;6125;59.628;17.852;2022-11-11T01:35:28;3.77;;;1.30;;
12122;SDS011;6125;59.628;17.852;2022-11-11T01:37:57;5.13;;;1.63;;
12122;SDS011;6125;59.628;17.852;2022-11-11T01:40:24;5.67;;;1.43;;
12122;SDS011;6125;59.628;17.852;2022-11-11T01:42:52;2.53;;;1.20;;
12122;SDS011;6125;59.628;17.852;2022-11-11T01:45:46;6.87;;;1.47;;
12122;SDS011;6125;59.628;17.852;2022-11-11T01:48:22;4.17;;;1.43;;
12122;SDS011;6125;59.628;17.852;2022-11-11T01:51:13;2.67;;;1.50;;
12122;SDS011;6125;59.628;17.852;2022-11-11T01:53:52;2.17;;;1.10;;
12122;SDS011;6125;59.628;17.852;2022-11-11T01:56:23;5.10;;;1.20;;
12122;SDS011;6125;59.628;17.852;2022-11-11T01:58:51;3.10;;;1.57;;
12122;SDS011;6125;59.628;17.852;2022-11-11T02:01:21;4.70;;;1.50;;
12122;SDS011;6125;59.628;17.852;2022-11-11T02:03:50;5.53;;;2.00;;
12122;SDS011;6125;59.628;17.852;2022-11-11T02:06:40;2.70;;;1.30;;
12122;SDS011;6125;59.628;17.852;2022-11-11T02:09:07;3.73;;;1.37;;
12122;SDS011;6125;59.628;17.852;2022-11-11T02:11:34;3.33;;;1.53;;
12122;SDS011;6125;59.628;17.852;2022-11-11T02:14:21;4.33;;;1.20;;
12122;SDS011;6125;59.628;17.852;2022-11-11T02:17:05;3.13;;;1.50;;
12122;SDS011;6125;59.628;17.852;2022-11-11T02:19:37;3.43;;;1.47;;
12122;SDS011;6125;59.628;17.852;2022-11-11T02:22:15;6.97;;;1.70;;
12122;SDS011;6125;59.628;17.852;2022-11-11T02:24:49;3.50;;;1.20;;
12122;SDS011;6125;59.628;17.852;2022-11-11T02:27:18;3.10;;;1.20;;
12122;SDS011;6125;59.628;17.852;2022-11-11T02:29:49;3.00;;;1.30;;
12122;SDS011;6125;59.628;17.852;2022-11-11T02:32:18;3.23;;;1.20;;
12122;SDS011;6125;59.628;17.852;2022-11-11T02:34:45;6.63;;;1.60;;
12122;SDS011;6125;59.628;17.852;2022-11-11T02:37:18;2.43;;;1.20;;
12122;SDS011;6125;59.628;17.852;2022-11-11T02:39:47;3.10;;;1.00;;
12122;SDS011;6125;59.628;17.852;2022-11-11T02:42:19;1.60;;;1.30;;
12122;SDS011;6125;59.628;17.852;2022-11-11T02:44:47;13.97;;;7.53;;
12122;SDS011;6125;59.628;17.852;2022-11-11T02:47:24;6.20;;;2.47;;
12122;SDS011;6125;59.628;17.852;2022-11-11T02:49:52;2.73;;;1.57;;
12122;SDS011;6125;59.628;17.852;2022-11-11T02:52:19;2.07;;;1.13;;
12122;SDS011;6125;59.628;17.852;2022-11-11T02:54:46;3.23;;;1.73;;
12122;SDS011;6125;59.628;17.852;2022-11-11T02:57:15;3.67;;;1.27;;
12122;SDS011;6125;59.628;17.852;2022-11-11T02:59:42;7.73;;;1.40;;
12122;SDS011;6125;59.628;17.852;2022-11-11T03:02:15;3.57;;;1.10;;
12122;SDS011;6125;59.628;17.852;2022-11-11T03:04:42;1.90;;;1.40;;
12122;SDS011;6125;59.628;17.852;2022-11-11T03:07:09;4.20;;;1.47;;
12122;SDS011;6125;59.628;17.852;2022-11-11T03:09:36;7.73;;;1.47;;
12122;SDS011;6125;59.628;17.852;2022-11-11T03:12:03;2.13;;;1.00;;
12122;SDS011;6125;59.628;17.852;2022-11-11T03:14:32;3.23;;;1.23;;
12122;SDS011;6125;59.628;17.852;2022-11-11T03:16:59;3.07;;;1.53;;
12122;SDS011;6125;59.628;17.852;2022-11-11T03:19:49;2.80;;;0.90;;
12122;SDS011;6125;59.628;17.852;2022-11-11T03:22:16;3.07;;;1.20;;
12122;SDS011;6125;59.628;17.852;2022-11-11T03:24:45;2.73;;;1.17;;
12122;SDS011;6125;59.628;17.852;2022-11-11T03:27:30;2.07;;;1.10;;
12122;SDS011;6125;59.628;17.852;2022-11-11T03:30:04;2.83;;;1.20;;
12122;SDS011;6125;59.628;17.852;2022-11-11T03:32:32;2.97;;;1.27;;
12122;SDS011;6125;59.628;17.852;2022-11-11T03:34:59;4.90;;;1.13;;
12122;SDS011;6125;59.628;17.852;2022-11-11T03:37:29;2.80;;;1.13;;
12122;SDS011;6125;59.628;17.852;2022-11-11T03:40:16;1.90;;;1.20;;
12122;SDS011;6125;59.628;17.852;2022-11-11T03:42:45;3.87;;;1.13;;
12122;SDS011;6125;59.628;17.852;2022-11-11T03:45:13;2.10;;;1.00;;
12122;SDS011;6125;59.628;17.852;2022-11-11T03:47:40;2.30;;;0.90;;
12122;SDS011;6125;59.628;17.852;2022-11-11T03:50:09;2.73;;;1.13;;
12122;SDS011;6125;59.628;17.852;2022-11-11T03:52:40;1.20;;;0.80;;
12122;SDS011;6125;59.628;17.852;2022-11-11T03:55:12;2.63;;;1.07;;
12122;SDS011;6125;59.628;17.852;2022-11-11T03:57:39;2.77;;;1.00;;
12122;SDS011;6125;59.628;17.852;2022-11-11T04:00:08;3.53;;;0.73;;
12122;SDS011;6125;59.628;17.852;2022-11-11T04:02:38;2.47;;;1.20;;
12122;SDS011;6125;59.628;17.852;2022-11-11T04:05:22;2.47;;;1.03;;
12122;SDS011;6125;59.628;17.852;2022-11-11T04:08:08;3.40;;;1.13;;
12122;SDS011;6125;59.628;17.852;2022-11-11T04:10:56;2.47;;;1.00;;
12122;SDS011;6125;59.628;17.852;2022-11-11T04:13:30;3.60;;;1.00;;
12122;SDS011;6125;59.628;17.852;2022-11-11T04:16:29;4.50;;;1.33;;
12122;SDS011;6125;59.628;17.852;2022-11-11T04:18:57;1.73;;;1.00;;
12122;SDS011;6125;59.628;17.852;2022-11-11T04:21:42;3.10;;;1.23;;
12122;SDS011;6125;59.628;17.852;2022-11-11T04:24:09;1.30;;;0.80;;
12122;SDS011;6125;59.628;17.852;2022-11-11T04:26:55;4.67;;;1.00;;
12122;SDS011;6125;59.628;17.852;2022-11-11T04:29:26;1.63;;;1.00;;
12122;SDS011;6125;59.628;17.852;2022-11-11T04:31:56;3.97;;;1.10;;
12122;SDS011;6125;59.628;17.852;2022-11-11T04:34:43;3.90;;;1.30;;
12122;SDS011;6125;59.628;17.852;2022-11-11T04:37:11;3.67;;;1.03;;
12122;SDS011;6125;59.628;17.852;2022-11-11T04:39:44;5.47;;;1.00;;
12122;SDS011;6125;59.628;17.852;2022-11-11T04:42:34;4.07;;;1.20;;
12122;SDS011;6125;59.628;17.852;2022-11-11T04:45:03;3.17;;;0.97;;
12122;SDS011;6125;59.628;17.852;2022-11-11T04:47:53;2.93;;;1.13;;
12122;SDS011;6125;59.628;17.852;2022-11-11T04:50:26;3.50;;;1.30;;
12122;SDS011;6125;59.628;17.852;2022-11-11T04:52:57;2.80;;;1.27;;
12122;SDS011;6125;59.628;17.852;2022-11-11T04:55:25;4.50;;;1.57;;
12122;SDS011;6125;59.628;17.852;2022-11-11T04:58:11;4.33;;;1.10;;
12122;SDS011;6125;59.628;17.852;2022-11-11T05:00:38;5.90;;;1.60;;
12122;SDS011;6125;59.628;17.852;2022-11-11T05:03:06;3.47;;;1.00;;
12122;SDS011;6125;59.628;17.852;2022-11-11T05:05:47;3.70;;;1.30;;
12122;SDS011;6125;59.628;17.852;2022-11-11T05:08:33;3.07;;;1.00;;
12122;SDS011;6125;59.628;17.852;2022-11-11T05:11:24;4.57;;;1.47;;
12122;SDS011;6125;59.628;17.852;2022-11-11T05:13:52;5.67;;;1.40;;
12122;SDS011;6125;59.628;17.852;2022-11-11T05:16:40;6.67;;;1.80;;
12122;SDS011;6125;59.628;17.852;2022-11-11T05:19:26;6.07;;;1.30;;
12122;SDS011;6125;59.628;17.852;2022-11-11T05:22:14;4.10;;;1.60;;
12122;SDS011;6125;59.628;17.852;2022-11-11T05:24:48;4.87;;;2.07;;
12122;SDS011;6125;59.628;17.852;2022-11-11T05:27:41;4.53;;;1.57;;
12122;SDS011;6125;59.628;17.852;2022-11-11T05:30:15;5.30;;;1.87;;
12122;SDS011;6125;59.628;17.852;2022-11-11T05:32:45;11.03;;;3.00;;
12122;SDS011;6125;59.628;17.852;2022-11-11T05:35:13;4.73;;;1.60;;
12122;SDS011;6125;59.628;17.852;2022-11-11T05:37:42;6.07;;;1.37;;
12122;SDS011;6125;59.628;17.852;2022-11-11T05:40:32;7.40;;;1.70;;
12122;SDS011;6125;59.628;17.852;2022-11-11T05:43:01;3.47;;;1.70;;
12122;SDS011;6125;59.628;17.852;2022-11-11T05:45:30;4.77;;;1.50;;
12122;SDS011;6125;59.628;17.852;2022-11-11T05:47:59;9.33;;;1.93;;
12122;SDS011;6125;59.628;17.852;2022-11-11T05:50:36;7.13;;;2.53;;
12122;SDS011;6125;59.628;17.852;2022-11-11T05:53:07;4.23;;;1.63;;
12122;SDS011;6125;59.628;17.852;2022-11-11T05:55:34;6.47;;;1.87;;
12122;SDS011;6125;59.628;17.852;2022-11-11T05:58:04;3.87;;;1.37;;
12122;SDS011;6125;59.628;17.852;2022-11-11T06:00:34;4.93;;;1.83;;
12122;SDS011;6125;59.628;17.852;2022-11-11T06:03:01;5.17;;;2.10;;
12122;SDS011;6125;59.628;17.852;2022-11-11T06:05:29;6.87;;;2.13;;
12122;SDS011;6125;59.628;17.852;2022-11-11T06:07:56;10.23;;;2.30;;
12122;SDS011;6125;59.628;17.852;2022-11-11T06:10:26;10.53;;;1.90;;
12122;SDS011;6125;59.628;17.852;2022-11-11T06:12:56;5.90;;;2.07;;
12122;SDS011;6125;59.628;17.852;2022-11-11T06:15:31;7.57;;;2.07;;
12122;SDS011;6125;59.628;17.852;2022-11-11T06:17:59;8.57;;;1.70;;
12122;SDS011;6125;59.628;17.852;2022-11-11T06:20:27;7.03;;;1.87;;
12122;SDS011;6125;59.628;17.852;2022-11-11T06:22:54;9.10;;;2.13;;
12122;SDS011;6125;59.628;17.852;2022-11-11T06:25:21;6.57;;;2.30;;
12122;SDS011;6125;59.628;17.852;2022-11-11T06:28:17;5.80;;;2.07;;
12122;SDS011;6125;59.628;17.852;2022-11-11T06:30:47;5.60;;;1.80;;
12122;SDS011;6125;59.628;17.852;2022-11-11T06:33:17;8.57;;;2.20;;
12122;SDS011;6125;59.628;17.852;2022-11-11T06:35:46;8.63;;;2.43;;
12122;SDS011;6125;59.628;17.852;2022-11-11T06:38:18;7.53;;;2.33;;
12122;SDS011;6125;59.628;17.852;2022-11-11T06:40:48;7.73;;;2.23;;
12122;SDS011;6125;59.628;17.852;2022-11-11T06:43:16;7.70;;;2.43;;
12122;SDS011;6125;59.628;17.852;2022-11-11T06:45:43;7.10;;;2.47;;
12122;SDS011;6125;59.628;17.852;2022-11-11T06:48:15;7.80;;;2.00;;
12122;SDS011;6125;59.628;17.852;2022-11-11T06:50:50;8.20;;;2.13;;
12122;SDS011;6125;59.628;17.852;2022-11-11T06:53:18;10.27;;;2.30;;
12122;SDS011;6125;59.628;17.852;2022-11-11T06:55:50;8.70;;;2.33;;
12122;SDS011;6125;59.628;17.852;2022-11-11T06:58:19;5.90;;;2.57;;
12122;SDS011;6125;59.628;17.852;2022-11-11T07:00:49;8.53;;;2.90;;
12122;SDS011;6125;59.628;17.852;2022-11-11T07:03:20;9.43;;;2.33;;
12122;SDS011;6125;59.628;17.852;2022-11-11T07:05:47;8.53;;;2.70;;
12122;SDS011;6125;59.628;17.852;2022-11-11T07:08:19;11.00;;;2.70;;
12122;SDS011;6125;59.628;17.852;2022-11-11T07:10:47;10.57;;;2.73;;
12122;SDS011;6125;59.628;17.852;2022-11-11T07:13:14;6.27;;;2.30;;
12122;SDS011;6125;59.628;17.852;2022-11-11T07:15:43;9.13;;;2.70;;
12122;SDS011;6125;59.628;17.852;2022-11-11T07:18:10;8.87;;;2.40;;
12122;SDS011;6125;59.628;17.852;2022-11-11T07:20:38;8.73;;;2.80;;
12122;SDS011;6125;59.628;17.852;2022-11-11T07:23:05;11.33;;;2.60;;
12122;SDS011;6125;59.628;17.852;2022-11-11T07:25:35;14.43;;;2.87;;
12122;SDS011;6125;59.628;17.852;2022-11-11T07:28:05;9.97;;;3.57;;
12122;SDS011;6125;59.628;17.852;2022-11-11T07:30:35;11.97;;;2.70;;
12122;SDS011;6125;59.628;17.852;2022-11-11T07:33:07;11.33;;;2.90;;
12122;SDS011;6125;59.628;17.852;2022-11-11T07:35:34;9.97;;;2.90;;
12122;SDS011;6125;59.628;17.852;2022-11-11T07:38:01;11.17;;;3.53;;
12122;SDS011;6125;59.628;17.852;2022-11-11T07:40:28;10.73;;;3.20;;
12122;SDS011;6125;59.628;17.852;2022-11-11T07:42:55;11.07;;;3.10;;
12122;SDS011;6125;59.628;17.852;2022-11-11T07:45:22;14.87;;;2.60;;
12122;SDS011;6125;59.628;17.852;2022-11-11T07:47:49;9.80;;;2.50;;
12122;SDS011;6125;59.628;17.852;2022-11-11T07:50:20;12.80;;;3.23;;
12122;SDS011;6125;59.628;17.852;2022-11-11T07:52:48;11.47;;;3.03;;
12122;SDS011;6125;59.628;17.852;2022-11-11T07:55:15;9.87;;;2.70;;
12122;SDS011;6125;59.628;17.852;2022-11-11T07:57:42;16.27;;;4.53;;
12122;SDS011;6125;59.628;17.852;2022-11-11T08:00:16;12.33;;;2.93;;
12122;SDS011;6125;59.628;17.852;2022-11-11T08:02:45;11.57;;;2.87;;
12122;SDS011;6125;59.628;17.852;2022-11-11T08:05:13;12.73;;;3.10;;
12122;SDS011;6125;59.628;17.852;2022-11-11T08:07:44;11.10;;;3.27;;
12122;SDS011;6125;59.628;17.852;2022-11-11T08:10:12;8.67;;;2.63;;
12122;SDS011;6125;59.628;17.852;2022-11-11T08:12:40;11.40;;;3.37;;
12122;SDS011;6125;59.628;17.852;2022-11-11T08:15:24;9.23;;;2.80;;
12122;SDS011;6125;59.628;17.852;2022-11-11T08:17:51;12.07;;;3.37;;
12122;SDS011;6125;59.628;17.852;2022-11-11T08:20:18;13.00;;;3.27;;
12122;SDS011;6125;59.628;17.852;2022-11-11T08:22:46;11.23;;;2.83;;
12122;SDS011;6125;59.628;17.852;2022-11-11T08:25:14;14.07;;;3.57;;
12122;SDS011;6125;59.628;17.852;2022-11-11T08:27:41;11.77;;;3.03;;
12122;SDS011;6125;59.628;17.852;2022-11-11T08:30:11;9.17;;;2.97;;
12122;SDS011;6125;59.628;17.852;2022-11-11T08:32:38;15.57;;;3.50;;
12122;SDS011;6125;59.628;17.852;2022-11-11T08:35:06;14.43;;;3.20;;
12122;SDS011;6125;59.628;17.852;2022-11-11T08:37:33;12.27;;;3.73;;
12122;SDS011;6125;59.628;17.852;2022-11-11T08:43:24;9.90;;;2.40;;
12122;SDS011;6125;59.628;17.852;2022-11-11T08:45:57;8.30;;;3.43;;
12122;SDS011;6125;59.628;17.852;2022-11-11T08:48:28;13.13;;;2.97;;
12122;SDS011;6125;59.628;17.852;2022-11-11T08:50:59;9.50;;;3.00;;
12122;SDS011;6125;59.628;17.852;2022-11-11T08:53:31;10.70;;;3.17;;
12122;SDS011;6125;59.628;17.852;2022-11-11T08:55:59;12.83;;;2.80;;
12122;SDS011;6125;59.628;17.852;2022-11-11T08:58:30;21.90;;;3.70;;
12122;SDS011;6125;59.628;17.852;2022-11-11T09:00:57;14.10;;;2.97;;
12122;SDS011;6125;59.628;17.852;2022-11-11T09:03:25;12.87;;;3.00;;
12122;SDS011;6125;59.628;17.852;2022-11-11T09:05:54;14.47;;;3.07;;
12122;SDS011;6125;59.628;17.852;2022-11-11T09:08:21;11.43;;;2.73;;
12122;SDS011;6125;59.628;17.852;2022-11-11T09:10:57;13.33;;;3.23;;
12122;SDS011;6125;59.628;17.852;2022-11-11T09:13:25;8.00;;;2.70;;
12122;SDS011;6125;59.628;17.852;2022-11-11T09:15:53;8.33;;;2.97;;
12122;SDS011;6125;59.628;17.852;2022-11-11T09:18:20;16.10;;;3.43;;
12122;SDS011;6125;59.628;17.852;2022-11-11T09:20:47;11.53;;;2.40;;
12122;SDS011;6125;59.628;17.852;2022-11-11T09:23:14;10.90;;;3.13;;
12122;SDS011;6125;59.628;17.852;2022-11-11T09:25:41;10.83;;;3.47;;
12122;SDS011;6125;59.628;17.852;2022-11-11T09:28:09;11.97;;;3.00;;
12122;SDS011;6125;59.628;17.852;2022-11-11T09:30:36;14.53;;;3.70;;
12122;SDS011;6125;59.628;17.852;2022-11-11T09:33:11;10.77;;;3.23;;
12122;SDS011;6125;59.628;17.852;2022-11-11T09:35:40;15.90;;;3.37;;
12122;SDS011;6125;59.628;17.852;2022-11-11T09:38:09;14.10;;;3.63;;
12122;SDS011;6125;59.628;17.852;2022-11-11T09:40:39;14.60;;;3.03;;
12122;SDS011;6125;59.628;17.852;2022-11-11T09:43:16;9.97;;;2.60;;
12122;SDS011;6125;59.628;17.852;2022-11-11T09:45:58;14.67;;;3.20;;
12122;SDS011;6125;59.628;17.852;2022-11-11T09:48:49;12.80;;;2.93;;
12122;SDS011;6125;59.628;17.852;2022-11-11T09:51:35;9.90;;;2.87;;
12122;SDS011;6125;59.628;17.852;2022-11-11T09:54:10;12.73;;;2.93;;
12122;SDS011;6125;59.628;17.852;2022-11-11T09:56:42;7.70;;;2.57;;
12122;SDS011;6125;59.628;17.852;2022-11-11T09:59:12;12.93;;;3.20;;
12122;SDS011;6125;59.628;17.852;2022-11-11T10:01:43;13.07;;;3.00;;
12122;SDS011;6125;59.628;17.852;2022-11-11T10:04:22;10.47;;;2.90;;
12122;SDS011;6125;59.628;17.852;2022-11-11T10:06:59;18.13;;;3.80;;
12122;SDS011;6125;59.628;17.852;2022-11-11T10:09:35;10.97;;;2.73;;
12122;SDS011;6125;59.628;17.852;2022-11-11T10:12:07;7.83;;;2.70;;
12122;SDS011;6125;59.628;17.852;2022-11-11T10:14:37;10.40;;;3.00;;
12122;SDS011;6125;59.628;17.852;2022-11-11T10:17:08;9.90;;;2.57;;
12122;SDS011;6125;59.628;17.852;2022-11-11T10:19:49;11.40;;;2.67;;
12122;SDS011;6125;59.628;17.852;2022-11-11T10:22:22;8.30;;;2.67;;
12122;SDS011;6125;59.628;17.852;2022-11-11T10:25:02;8.57;;;2.90;;
12122;SDS011;6125;59.628;17.852;2022-11-11T10:27:34;6.07;;;2.50;;
12122;SDS011;6125;59.628;17.852;2022-11-11T10:30:06;10.87;;;2.37;;
12122;SDS011;6125;59.628;17.852;2022-11-11T10:32:46;7.23;;;2.93;;
12122;SDS011;6125;59.628;17.852;2022-11-11T10:35:23;12.60;;;2.60;;
12122;SDS011;6125;59.628;17.852;2022-11-11T10:37:56;10.97;;;2.77;;
12122;SDS011;6125;59.628;17.852;2022-11-11T10:40:33;8.57;;;3.00;;
12122;SDS011;6125;59.628;17.852;2022-11-11T10:43:10;10.43;;;2.93;;
12122;SDS011;6125;59.628;17.852;2022-11-11T10:45:48;10.83;;;2.77;;
12122;SDS011;6125;59.628;17.852;2022-11-11T10:48:22;6.60;;;2.23;;
12122;SDS011;6125;59.628;17.852;2022-11-11T10:50:56;9.43;;;2.57;;
12122;SDS011;6125;59.628;17.852;2022-11-11T10:53:30;11.47;;;2.33;;
12122;SDS011;6125;59.628;17.852;2022-11-11T10:56:03;9.50;;;2.53;;
12122;SDS011;6125;59.628;17.852;2022-11-11T10:58:42;6.23;;;2.10;;
12122;SDS011;6125;59.628;17.852;2022-11-11T11:01:15;8.13;;;2.40;;
12122;SDS011;6125;59.628;17.852;2022-11-11T11:03:48;5.07;;;2.20;;
12122;SDS011;6125;59.628;17.852;2022-11-11T11:06:25;9.20;;;3.00;;
12122;SDS011;6125;59.628;17.852;2022-11-11T11:08:55;9.60;;;2.53;;
12122;SDS011;6125;59.628;17.852;2022-11-11T11:11:29;8.93;;;2.43;;
12122;SDS011;6125;59.628;17.852;2022-11-11T11:14:02;7.70;;;2.27;;
12122;SDS011;6125;59.628;17.852;2022-11-11T11:16:36;4.97;;;2.00;;
12122;SDS011;6125;59.628;17.852;2022-11-11T11:19:15;6.70;;;1.83;;
12122;SDS011;6125;59.628;17.852;2022-11-11T11:21:54;9.97;;;3.13;;
12122;SDS011;6125;59.628;17.852;2022-11-11T11:24:23;6.57;;;2.90;;
12122;SDS011;6125;59.628;17.852;2022-11-11T11:26:52;8.57;;;2.10;;
12122;SDS011;6125;59.628;17.852;2022-11-11T11:29:25;6.17;;;2.67;;
12122;SDS011;6125;59.628;17.852;2022-11-11T11:31:53;11.17;;;2.20;;
12122;SDS011;6125;59.628;17.852;2022-11-11T11:34:46;6.60;;;2.17;;
12122;SDS011;6125;59.628;17.852;2022-11-11T11:37:16;8.13;;;2.67;;
12122;SDS011;6125;59.628;17.852;2022-11-11T11:39:45;8.50;;;2.30;;
12122;SDS011;6125;59.628;17.852;2022-11-11T11:42:33;6.20;;;2.00;;
12122;SDS011;6125;59.628;17.852;2022-11-11T11:48:04;7.00;;;2.47;;
12122;SDS011;6125;59.628;17.852;2022-11-11T11:50:45;5.80;;;2.10;;
12122;SDS011;6125;59.628;17.852;2022-11-11T11:56:06;8.90;;;2.20;;
12122;SDS011;6125;59.628;17.852;2022-11-11T11:58:47;8.67;;;2.00;;
12122;SDS011;6125;59.628;17.852;2022-11-11T12:01:34;5.83;;;1.70;;
12122;SDS011;6125;59.628;17.852;2022-11-11T12:07:31;8.43;;;2.40;;
12122;SDS011;6125;59.628;17.852;2022-11-11T12:10:10;7.03;;;1.50;;
12122;SDS011;6125;59.628;17.852;2022-11-11T12:13:12;5.50;;;1.47;;
12122;SDS011;6125;59.628;17.852;2022-11-11T12:15:51;6.50;;;1.60;;
12122;SDS011;6125;59.628;17.852;2022-11-11T12:18:36;5.43;;;1.50;;
12122;SDS011;6125;59.628;17.852;2022-11-11T12:21:19;5.83;;;1.83;;
12122;SDS011;6125;59.628;17.852;2022-11-11T12:23:55;4.20;;;1.63;;
12122;SDS011;6125;59.628;17.852;2022-11-11T12:26:27;4.57;;;1.73;;
12122;SDS011;6125;59.628;17.852;2022-11-11T12:29:08;7.83;;;2.13;;
12122;SDS011;6125;59.628;17.852;2022-11-11T12:31:48;3.47;;;1.43;;
12122;SDS011;6125;59.628;17.852;2022-11-11T12:34:47;3.30;;;1.50;;
12122;SDS011;6125;59.628;17.852;2022-11-11T12:37:32;5.27;;;1.87;;
12122;SDS011;6125;59.628;17.852;2022-11-11T12:40:13;3.90;;;1.60;;
12122;SDS011;6125;59.628;17.852;2022-11-11T12:42:54;3.10;;;1.50;;
12122;SDS011;6125;59.628;17.852;2022-11-11T12:45:34;5.00;;;1.87;;
12122;SDS011;6125;59.628;17.852;2022-11-11T12:48:14;6.83;;;1.73;;
12122;SDS011;6125;59.628;17.852;2022-11-11T12:51:03;6.17;;;1.63;;
12122;SDS011;6125;59.628;17.852;2022-11-11T12:53:42;5.00;;;1.50;;
12122;SDS011;6125;59.628;17.852;2022-11-11T12:56:21;3.20;;;1.60;;
12122;SDS011;6125;59.628;17.852;2022-11-11T12:58:56;5.03;;;1.73;;
12122;SDS011;6125;59.628;17.852;2022-11-11T13:01:32;3.93;;;2.20;;
12122;SDS011;6125;59.628;17.852;2022-11-11T13:07:10;9.17;;;3.27;;
12122;SDS011;6125;59.628;17.852;2022-11-11T13:10:09;6.50;;;3.33;;
12122;SDS011;6125;59.628;17.852;2022-11-11T13:12:46;5.50;;;1.80;;
12122;SDS011;6125;59.628;17.852;2022-11-11T13:15:23;4.60;;;2.17;;
12122;SDS011;6125;59.628;17.852;2022-11-11T13:17:51;4.07;;;1.60;;
12122;SDS011;6125;59.628;17.852;2022-11-11T13:20:26;7.60;;;1.90;;
12122;SDS011;6125;59.628;17.852;2022-11-11T13:23:06;6.13;;;2.13;;
12122;SDS011;6125;59.628;17.852;2022-11-11T13:25:38;5.53;;;2.13;;
12122;SDS011;6125;59.628;17.852;2022-11-11T13:28:13;8.10;;;2.30;;
12122;SDS011;6125;59.628;17.852;2022-11-11T13:30:47;10.37;;;2.30;;
12122;SDS011;6125;59.628;17.852;2022-11-11T13:33:23;5.60;;;1.97;;
12122;SDS011;6125;59.628;17.852;2022-11-11T13:36:00;6.63;;;2.23;;
12122;SDS011;6125;59.628;17.852;2022-11-11T13:38:29;5.30;;;1.90;;
12122;SDS011;6125;59.628;17.852;2022-11-11T13:41:11;7.70;;;2.37;;
12122;SDS011;6125;59.628;17.852;2022-11-11T13:43:45;10.17;;;2.43;;
12122;SDS011;6125;59.628;17.852;2022-11-11T13:46:28;8.27;;;2.80;;
12122;SDS011;6125;59.628;17.852;2022-11-11T13:48:58;6.37;;;1.83;;
12122;SDS011;6125;59.628;17.852;2022-11-11T13:51:29;11.70;;;3.10;;
12122;SDS011;6125;59.628;17.852;2022-11-11T13:54:01;7.93;;;2.63;;
12122;SDS011;6125;59.628;17.852;2022-11-11T13:56:45;12.80;;;3.10;;
12122;SDS011;6125;59.628;17.852;2022-11-11T13:59:16;6.13;;;2.47;;
12122;SDS011;6125;59.628;17.852;2022-11-11T14:01:49;7.30;;;2.10;;
12122;SDS011;6125;59.628;17.852;2022-11-11T14:07:54;7.20;;;2.50;;
12122;SDS011;6125;59.628;17.852;2022-11-11T14:16:08;6.00;;;2.20;;
12122;SDS011;6125;59.628;17.852;2022-11-11T14:19:27;6.77;;;2.47;;
12122;SDS011;6125;59.628;17.852;2022-11-11T14:21:56;6.63;;;2.23;;
12122;SDS011;6125;59.628;17.852;2022-11-11T14:24:36;11.30;;;2.87;;
12122;SDS011;6125;59.628;17.852;2022-11-11T14:27:13;8.93;;;2.37;;
12122;SDS011;6125;59.628;17.852;2022-11-11T14:29:47;13.10;;;2.83;;
12122;SDS011;6125;59.628;17.852;2022-11-11T14:32:28;6.53;;;2.37;;
12122;SDS011;6125;59.628;17.852;2022-11-11T14:38:11;6.63;;;2.20;;
12122;SDS011;6125;59.628;17.852;2022-11-11T14:40:47;6.77;;;2.30;;
12122;SDS011;6125;59.628;17.852;2022-11-11T14:46:06;8.07;;;2.33;;
12122;SDS011;6125;59.628;17.852;2022-11-11T14:54:30;9.17;;;2.63;;
12122;SDS011;6125;59.628;17.852;2022-11-11T14:57:15;8.10;;;2.17;;
12122;SDS011;6125;59.628;17.852;2022-11-11T14:59:46;5.67;;;2.37;;
12122;SDS011;6125;59.628;17.852;2022-11-11T15:02:21;7.20;;;2.27;;
12122;SDS011;6125;59.628;17.852;2022-11-11T15:04:56;11.07;;;2.90;;
12122;SDS011;6125;59.628;17.852;2022-11-11T15:07:30;8.60;;;2.77;;
12122;SDS011;6125;59.628;17.852;2022-11-11T15:10:16;8.27;;;2.50;;
12122;SDS011;6125;59.628;17.852;2022-11-11T15:15:55;7.30;;;2.57;;
12122;SDS011;6125;59.628;17.852;2022-11-11T15:18:40;11.23;;;2.83;;
12122;SDS011;6125;59.628;17.852;2022-11-11T15:21:27;8.77;;;2.73;;
12122;SDS011;6125;59.628;17.852;2022-11-11T15:24:06;9.00;;;3.10;;
12122;SDS011;6125;59.628;17.852;2022-11-11T15:26:43;12.30;;;2.80;;
12122;SDS011;6125;59.628;17.852;2022-11-11T15:29:32;8.53;;;2.97;;
12122;SDS011;6125;59.628;17.852;2022-11-11T15:32:26;8.67;;;3.17;;
12122;SDS011;6125;59.628;17.852;2022-11-11T15:35:02;8.77;;;3.20;;
12122;SDS011;6125;59.628;17.852;2022-11-11T15:37:44;13.10;;;3.63;;
12122;SDS011;6125;59.628;17.852;2022-11-11T15:42:47;8.03;;;2.70;;
12122;SDS011;6125;59.628;17.852;2022-11-11T15:45:19;7.50;;;2.50;;
12122;SDS011;6125;59.628;17.852;2022-11-11T15:47:51;11.57;;;3.13;;
12122;SDS011;6125;59.628;17.852;2022-11-11T15:50:29;11.33;;;2.97;;
12122;SDS011;6125;59.628;17.852;2022-11-11T15:53:01;10.93;;;2.93;;
12122;SDS011;6125;59.628;17.852;2022-11-11T15:55:30;8.20;;;2.33;;
12122;SDS011;6125;59.628;17.852;2022-11-11T15:58:07;13.50;;;3.63;;
12122;SDS011;6125;59.628;17.852;2022-11-11T16:00:38;11.37;;;2.93;;
12122;SDS011;6125;59.628;17.852;2022-11-11T16:03:11;11.60;;;3.03;;
12122;SDS011;6125;59.628;17.852;2022-11-11T16:05:41;13.13;;;3.70;;
12122;SDS011;6125;59.628;17.852;2022-11-11T16:08:09;7.93;;;3.13;;